sensor_id;sensor_type;location;lat;lon;timestamp;pressure;altitude;pressure_sealevel;temperature;humidity
6567;BME280;3317;43.994;22.878;2022-08-19T00:01:57;100452.88;;;31.43;35.26
6567;BME280;3317;43.994;22.878;2022-08-19T00:04:28;100439.78;;;31.38;35.00
6567;BME280;3317;43.994;22.878;2022-08-19T00:06:56;100432.88;;;31.30;34.83
6567;BME280;3317;43.994;22.878;2022-08-19T00:09:24;100445.97;;;31.35;35.25
6567;BME280;3317;43.994;22.878;2022-08-19T00:11:53;100451.59;;;31.35;35.25
6567;BME280;3317;43.994;22.878;2022-08-19T00:14:24;100445.75;;;31.31;35.69
6567;BME280;3317;43.994;22.878;2022-08-19T00:16:52;100433.25;;;31.24;35.80
6567;BME280;3317;43.994;22.878;2022-08-19T00:19:22;100446.13;;;31.25;36.40
6567;BME280;3317;43.994;22.878;2022-08-19T00:21:51;100440.00;;;31.23;35.97
6567;BME280;3317;43.994;22.878;2022-08-19T00:24:18;100433.31;;;31.18;36.43
6567;BME280;3317;43.994;22.878;2022-08-19T00:26:45;100431.13;;;31.15;36.11
6567;BME280;3317;43.994;22.878;2022-08-19T00:29:14;100435.34;;;31.13;35.95
6567;BME280;3317;43.994;22.878;2022-08-19T00:31:44;100435.41;;;31.08;36.09
6567;BME280;3317;43.994;22.878;2022-08-19T00:34:11;100425.50;;;30.96;36.35
6567;BME280;3317;43.994;22.878;2022-08-19T00:36:39;100411.94;;;30.84;36.52
6567;BME280;3317;43.994;22.878;2022-08-19T00:39:07;100432.03;;;30.86;36.32
6567;BME280;3317;43.994;22.878;2022-08-19T00:41:35;100434.84;;;30.86;36.75
6567;BME280;3317;43.994;22.878;2022-08-19T00:44:06;100420.75;;;30.72;36.76
6567;BME280;3317;43.994;22.878;2022-08-19T00:46:35;100434.13;;;30.75;37.01
6567;BME280;3317;43.994;22.878;2022-08-19T00:49:09;100441.41;;;30.76;37.45
6567;BME280;3317;43.994;22.878;2022-08-19T00:51:43;100447.59;;;30.73;37.23
6567;BME280;3317;43.994;22.878;2022-08-19T00:54:11;100447.34;;;30.70;36.70
6567;BME280;3317;43.994;22.878;2022-08-19T00:56:39;100444.63;;;30.65;36.62
6567;BME280;3317;43.994;22.878;2022-08-19T00:59:07;100447.72;;;30.63;36.98
6567;BME280;3317;43.994;22.878;2022-08-19T01:01:35;100455.81;;;30.59;37.16
6567;BME280;3317;43.994;22.878;2022-08-19T01:04:04;100414.69;;;30.35;36.47
6567;BME280;3317;43.994;22.878;2022-08-19T01:06:32;100442.78;;;30.49;36.43
6567;BME280;3317;43.994;22.878;2022-08-19T01:09:00;100425.53;;;30.42;36.82
6567;BME280;3317;43.994;22.878;2022-08-19T01:11:27;100440.28;;;30.48;36.70
6567;BME280;3317;43.994;22.878;2022-08-19T01:13:56;100406.19;;;30.21;37.22
6567;BME280;3317;43.994;22.878;2022-08-19T01:16:25;100442.00;;;30.44;36.90
6567;BME280;3317;43.994;22.878;2022-08-19T01:18:53;100443.75;;;30.40;37.25
6567;BME280;3317;43.994;22.878;2022-08-19T01:21:28;100441.81;;;30.35;37.09
6567;BME280;3317;43.994;22.878;2022-08-19T01:23:59;100436.84;;;30.32;37.35
6567;BME280;3317;43.994;22.878;2022-08-19T01:26:26;100436.88;;;30.27;37.27
6567;BME280;3317;43.994;22.878;2022-08-19T01:28:56;100434.16;;;30.16;36.84
6567;BME280;3317;43.994;22.878;2022-08-19T01:31:27;100453.69;;;30.21;37.42
6567;BME280;3317;43.994;22.878;2022-08-19T01:33:57;100447.84;;;30.18;37.09
6567;BME280;3317;43.994;22.878;2022-08-19T01:36:27;100439.28;;;30.09;37.52
6567;BME280;3317;43.994;22.878;2022-08-19T01:38:55;100449.59;;;30.09;37.59
6567;BME280;3317;43.994;22.878;2022-08-19T01:41:25;100461.38;;;30.05;37.57
6567;BME280;3317;43.994;22.878;2022-08-19T01:43:52;100446.28;;;30.01;37.70
6567;BME280;3317;43.994;22.878;2022-08-19T01:46:20;100447.44;;;30.00;37.34
6567;BME280;3317;43.994;22.878;2022-08-19T01:48:47;100455.28;;;29.98;37.16
6567;BME280;3317;43.994;22.878;2022-08-19T01:51:15;100442.97;;;29.99;36.80
6567;BME280;3317;43.994;22.878;2022-08-19T01:53:42;100444.91;;;29.99;36.22
6567;BME280;3317;43.994;22.878;2022-08-19T01:56:09;100447.16;;;29.97;36.10
6567;BME280;3317;43.994;22.878;2022-08-19T01:58:41;100435.16;;;29.96;37.26
6567;BME280;3317;43.994;22.878;2022-08-19T02:01:08;100442.72;;;29.96;37.43
6567;BME280;3317;43.994;22.878;2022-08-19T02:03:35;100447.75;;;29.93;37.70
6567;BME280;3317;43.994;22.878;2022-08-19T02:06:04;100455.88;;;29.90;37.92
6567;BME280;3317;43.994;22.878;2022-08-19T02:08:35;100449.50;;;29.84;37.89
6567;BME280;3317;43.994;22.878;2022-08-19T02:11:02;100457.09;;;29.78;37.78
6567;BME280;3317;43.994;22.878;2022-08-19T02:13:31;100456.00;;;29.74;37.79
6567;BME280;3317;43.994;22.878;2022-08-19T02:16:00;100449.03;;;29.72;37.67
6567;BME280;3317;43.994;22.878;2022-08-19T02:18:27;100453.81;;;29.66;38.64
6567;BME280;3317;43.994;22.878;2022-08-19T02:20:55;100453.56;;;29.62;38.54
6567;BME280;3317;43.994;22.878;2022-08-19T02:23:22;100450.53;;;29.59;38.04
6567;BME280;3317;43.994;22.878;2022-08-19T02:25:48;100442.47;;;29.52;37.55
6567;BME280;3317;43.994;22.878;2022-08-19T02:28:16;100459.72;;;29.59;37.59
6567;BME280;3317;43.994;22.878;2022-08-19T02:30:42;100458.91;;;29.59;37.69
6567;BME280;3317;43.994;22.878;2022-08-19T02:33:11;100451.69;;;29.53;38.61
6567;BME280;3317;43.994;22.878;2022-08-19T02:35:41;100458.94;;;29.54;39.38
6567;BME280;3317;43.994;22.878;2022-08-19T02:38:09;100463.97;;;29.51;39.43
6567;BME280;3317;43.994;22.878;2022-08-19T02:40:56;100463.44;;;29.44;39.69
6567;BME280;3317;43.994;22.878;2022-08-19T02:43:23;100476.00;;;29.42;40.33
6567;BME280;3317;43.994;22.878;2022-08-19T02:45:52;100473.22;;;29.36;40.32
6567;BME280;3317;43.994;22.878;2022-08-19T02:48:23;100481.06;;;29.34;40.32
6567;BME280;3317;43.994;22.878;2022-08-19T02:50:52;100471.59;;;29.30;40.10
6567;BME280;3317;43.994;22.878;2022-08-19T02:53:21;100479.16;;;29.19;40.58
6567;BME280;3317;43.994;22.878;2022-08-19T02:55:49;100479.16;;;29.19;40.60
6567;BME280;3317;43.994;22.878;2022-08-19T02:58:18;100497.03;;;29.18;40.91
6567;BME280;3317;43.994;22.878;2022-08-19T03:00:47;100500.94;;;29.17;40.96
6567;BME280;3317;43.994;22.878;2022-08-19T03:03:14;100499.00;;;29.13;41.11
6567;BME280;3317;43.994;22.878;2022-08-19T03:05:43;100497.63;;;29.10;41.22
6567;BME280;3317;43.994;22.878;2022-08-19T03:08:11;100497.38;;;29.06;41.29
6567;BME280;3317;43.994;22.878;2022-08-19T03:10:43;100500.72;;;28.98;41.32
6567;BME280;3317;43.994;22.878;2022-08-19T03:13:13;100508.56;;;28.96;41.58
6567;BME280;3317;43.994;22.878;2022-08-19T03:15:41;100512.22;;;28.86;41.66
6567;BME280;3317;43.994;22.878;2022-08-19T03:18:09;100524.19;;;28.87;41.57
6567;BME280;3317;43.994;22.878;2022-08-19T03:20:41;100525.31;;;28.80;41.73
6567;BME280;3317;43.994;22.878;2022-08-19T03:23:10;100525.88;;;28.77;41.58
6567;BME280;3317;43.994;22.878;2022-08-19T03:25:39;100483.00;;;28.52;41.68
6567;BME280;3317;43.994;22.878;2022-08-19T03:28:09;100525.88;;;28.77;41.51
6567;BME280;3317;43.994;22.878;2022-08-19T03:30:37;100534.78;;;28.74;41.74
6567;BME280;3317;43.994;22.878;2022-08-19T03:33:05;100528.97;;;28.71;41.86
6567;BME280;3317;43.994;22.878;2022-08-19T03:35:33;100521.41;;;28.61;41.20
6567;BME280;3317;43.994;22.878;2022-08-19T03:38:02;100528.66;;;28.67;41.21
6567;BME280;3317;43.994;22.878;2022-08-19T03:40:30;100534.81;;;28.64;41.50
6567;BME280;3317;43.994;22.878;2022-08-19T03:42:57;100537.88;;;28.62;41.13
6567;BME280;3317;43.994;22.878;2022-08-19T03:45:24;100531.75;;;28.60;40.83
6567;BME280;3317;43.994;22.878;2022-08-19T03:47:52;100526.44;;;28.59;41.03
6567;BME280;3317;43.994;22.878;2022-08-19T03:50:19;100535.94;;;28.58;41.24
6567;BME280;3317;43.994;22.878;2022-08-19T03:52:48;100532.59;;;28.56;41.67
6567;BME280;3317;43.994;22.878;2022-08-19T03:55:16;100541.22;;;28.54;41.73
6567;BME280;3317;43.994;22.878;2022-08-19T03:57:45;100542.63;;;28.51;41.96
6567;BME280;3317;43.994;22.878;2022-08-19T04:00:15;100549.31;;;28.50;42.21
6567;BME280;3317;43.994;22.878;2022-08-19T04:02:42;100548.75;;;28.43;42.21
6567;BME280;3317;43.994;22.878;2022-08-19T04:05:09;100563.53;;;28.49;41.92
6567;BME280;3317;43.994;22.878;2022-08-19T04:07:36;100556.28;;;28.48;42.23
6567;BME280;3317;43.994;22.878;2022-08-19T04:10:04;100547.09;;;28.42;42.63
6567;BME280;3317;43.994;22.878;2022-08-19T04:12:31;100561.84;;;28.48;43.23
6567;BME280;3317;43.994;22.878;2022-08-19T04:15:00;100563.53;;;28.49;44.29
6567;BME280;3317;43.994;22.878;2022-08-19T04:17:27;100569.66;;;28.51;43.86
6567;BME280;3317;43.994;22.878;2022-08-19T04:19:54;100574.41;;;28.50;43.91
6567;BME280;3317;43.994;22.878;2022-08-19T04:22:21;100567.16;;;28.49;43.74
6567;BME280;3317;43.994;22.878;2022-08-19T04:24:48;100576.63;;;28.48;43.67
6567;BME280;3317;43.994;22.878;2022-08-19T04:27:15;100586.66;;;28.49;43.65
6567;BME280;3317;43.994;22.878;2022-08-19T04:29:42;100586.94;;;28.53;43.23
6567;BME280;3317;43.994;22.878;2022-08-19T04:32:11;100577.19;;;28.56;43.24
6567;BME280;3317;43.994;22.878;2022-08-19T04:34:40;100575.25;;;28.56;43.21
6567;BME280;3317;43.994;22.878;2022-08-19T04:37:08;100542.91;;;28.34;42.98
6567;BME280;3317;43.994;22.878;2022-08-19T04:39:37;100579.13;;;28.60;42.28
6567;BME280;3317;43.994;22.878;2022-08-19T04:42:18;100588.91;;;28.63;42.34
6567;BME280;3317;43.994;22.878;2022-08-19T04:45:06;100591.66;;;28.68;43.00
6567;BME280;3317;43.994;22.878;2022-08-19T04:47:38;100588.31;;;28.71;42.70
6567;BME280;3317;43.994;22.878;2022-08-19T04:50:06;100571.06;;;28.64;42.61
6567;BME280;3317;43.994;22.878;2022-08-19T04:52:36;100586.66;;;28.75;42.92
6567;BME280;3317;43.994;22.878;2022-08-19T04:55:08;100587.75;;;28.79;43.53
6567;BME280;3317;43.994;22.878;2022-08-19T04:57:35;100584.97;;;28.85;43.69
6567;BME280;3317;43.994;22.878;2022-08-19T05:00:07;100533.69;;;28.60;43.10
6567;BME280;3317;43.994;22.878;2022-08-19T05:02:38;100568.53;;;28.88;43.34
6567;BME280;3317;43.994;22.878;2022-08-19T05:05:06;100578.81;;;28.98;43.42
6567;BME280;3317;43.994;22.878;2022-08-19T05:07:34;100581.88;;;29.07;43.67
6567;BME280;3317;43.994;22.878;2022-08-19T05:10:02;100577.69;;;29.15;43.60
6567;BME280;3317;43.994;22.878;2022-08-19T05:12:31;100582.13;;;29.21;43.52
6567;BME280;3317;43.994;22.878;2022-08-19T05:14:58;100564.56;;;29.20;42.85
6567;BME280;3317;43.994;22.878;2022-08-19T05:17:27;100577.59;;;29.35;43.21
6567;BME280;3317;43.994;22.878;2022-08-19T05:19:56;100580.66;;;29.44;43.20
6567;BME280;3317;43.994;22.878;2022-08-19T05:22:41;100582.88;;;29.53;43.12
6567;BME280;3317;43.994;22.878;2022-08-19T05:25:13;100575.56;;;29.62;42.53
6567;BME280;3317;43.994;22.878;2022-08-19T05:27:41;100573.84;;;29.71;42.29
6567;BME280;3317;43.994;22.878;2022-08-19T05:30:12;100574.38;;;29.78;42.54
6567;BME280;3317;43.994;22.878;2022-08-19T05:32:41;100553.44;;;29.76;42.48
6567;BME280;3317;43.994;22.878;2022-08-19T05:35:10;100577.91;;;29.95;42.58
6567;BME280;3317;43.994;22.878;2022-08-19T05:37:38;100570.84;;;30.07;41.84
6567;BME280;3317;43.994;22.878;2022-08-19T05:40:06;100566.06;;;30.18;41.63
6567;BME280;3317;43.994;22.878;2022-08-19T05:42:33;100566.78;;;30.29;41.73
6567;BME280;3317;43.994;22.878;2022-08-19T05:45:04;100572.00;;;30.41;41.76
6567;BME280;3317;43.994;22.878;2022-08-19T05:47:31;100571.91;;;30.52;42.01
6567;BME280;3317;43.994;22.878;2022-08-19T05:49:58;100567.66;;;30.65;41.60
6567;BME280;3317;43.994;22.878;2022-08-19T05:52:28;100581.22;;;30.76;41.35
6567;BME280;3317;43.994;22.878;2022-08-19T05:54:55;100578.88;;;30.89;41.17
6567;BME280;3317;43.994;22.878;2022-08-19T05:57:23;100578.22;;;30.97;41.57
6567;BME280;3317;43.994;22.878;2022-08-19T05:59:50;100582.00;;;31.12;41.57
6567;BME280;3317;43.994;22.878;2022-08-19T06:02:19;100574.72;;;31.11;41.85
6567;BME280;3317;43.994;22.878;2022-08-19T06:04:46;100555.00;;;30.97;42.40
6567;BME280;3317;43.994;22.878;2022-08-19T06:07:13;100574.72;;;31.11;42.24
6567;BME280;3317;43.994;22.878;2022-08-19T06:09:42;100566.72;;;30.99;42.46
6567;BME280;3317;43.994;22.878;2022-08-19T06:12:09;100570.78;;;31.12;42.55
6567;BME280;3317;43.994;22.878;2022-08-19T06:14:36;100576.16;;;31.32;42.05
6567;BME280;3317;43.994;22.878;2022-08-19T06:17:03;100580.59;;;31.39;42.44
6567;BME280;3317;43.994;22.878;2022-08-19T06:19:31;100589.22;;;31.42;42.23
6567;BME280;3317;43.994;22.878;2022-08-19T06:22:00;100588.19;;;31.57;41.64
6567;BME280;3317;43.994;22.878;2022-08-19T06:24:28;100581.25;;;31.74;42.04
6567;BME280;3317;43.994;22.878;2022-08-19T06:26:59;100590.78;;;31.73;42.13
6567;BME280;3317;43.994;22.878;2022-08-19T06:29:27;100571.91;;;31.59;41.73
6567;BME280;3317;43.994;22.878;2022-08-19T06:31:57;100595.63;;;31.67;42.03
6567;BME280;3317;43.994;22.878;2022-08-19T06:34:27;100556.97;;;31.45;42.24
6567;BME280;3317;43.994;22.878;2022-08-19T06:36:56;100586.00;;;31.73;41.98
6567;BME280;3317;43.994;22.878;2022-08-19T06:39:26;100578.25;;;31.89;42.16
6567;BME280;3317;43.994;22.878;2022-08-19T06:41:56;100578.13;;;32.00;41.34
6567;BME280;3317;43.994;22.878;2022-08-19T06:44:28;100596.72;;;32.10;41.60
6567;BME280;3317;43.994;22.878;2022-08-19T06:47:01;100587.47;;;32.09;41.29
6567;BME280;3317;43.994;22.878;2022-08-19T06:49:32;100599.44;;;32.34;41.13
6567;BME280;3317;43.994;22.878;2022-08-19T06:52:00;100601.41;;;32.53;40.39
6567;BME280;3317;43.994;22.878;2022-08-19T06:54:29;100604.06;;;32.77;40.14
6567;BME280;3317;43.994;22.878;2022-08-19T06:56:56;100610.09;;;33.04;40.21
6567;BME280;3317;43.994;22.878;2022-08-19T06:59:26;100600.22;;;33.20;39.67
6567;BME280;3317;43.994;22.878;2022-08-19T07:01:56;100610.31;;;33.49;39.12
6567;BME280;3317;43.994;22.878;2022-08-19T07:04:27;100611.56;;;33.71;38.99
6567;BME280;3317;43.994;22.878;2022-08-19T07:07:00;100611.78;;;33.97;38.39
6567;BME280;3317;43.994;22.878;2022-08-19T07:09:28;100597.09;;;34.15;37.88
6567;BME280;3317;43.994;22.878;2022-08-19T07:11:55;100610.22;;;34.42;37.89
6567;BME280;3317;43.994;22.878;2022-08-19T07:14:26;100610.88;;;34.62;37.68
6567;BME280;3317;43.994;22.878;2022-08-19T07:16:55;100614.50;;;34.85;36.97
6567;BME280;3317;43.994;22.878;2022-08-19T07:19:25;100609.38;;;35.10;36.25
6567;BME280;3317;43.994;22.878;2022-08-19T07:21:54;100609.06;;;35.20;36.00
6567;BME280;3317;43.994;22.878;2022-08-19T07:24:23;100598.97;;;35.28;35.47
6567;BME280;3317;43.994;22.878;2022-08-19T07:26:52;100611.06;;;35.20;35.31
6567;BME280;3317;43.994;22.878;2022-08-19T07:29:20;100607.78;;;35.27;35.42
6567;BME280;3317;43.994;22.878;2022-08-19T07:31:50;100605.09;;;35.21;35.16
6567;BME280;3317;43.994;22.878;2022-08-19T07:34:18;100603.78;;;35.28;35.15
6567;BME280;3317;43.994;22.878;2022-08-19T07:36:45;100599.06;;;35.46;35.44
6567;BME280;3317;43.994;22.878;2022-08-19T07:39:15;100606.75;;;35.63;34.92
6567;BME280;3317;43.994;22.878;2022-08-19T07:41:44;100602.59;;;35.69;34.53
6567;BME280;3317;43.994;22.878;2022-08-19T07:44:12;100604.13;;;35.84;34.22
6567;BME280;3317;43.994;22.878;2022-08-19T07:46:42;100589.38;;;35.96;34.01
6567;BME280;3317;43.994;22.878;2022-08-19T07:49:12;100597.69;;;36.28;34.73
6567;BME280;3317;43.994;22.878;2022-08-19T07:51:43;100599.66;;;36.62;34.85
6567;BME280;3317;43.994;22.878;2022-08-19T07:54:10;100602.75;;;36.87;34.13
6567;BME280;3317;43.994;22.878;2022-08-19T07:56:38;100598.72;;;37.06;32.99
6567;BME280;3317;43.994;22.878;2022-08-19T07:59:06;100594.16;;;37.23;32.41
6567;BME280;3317;43.994;22.878;2022-08-19T08:01:35;100598.06;;;37.39;32.64
6567;BME280;3317;43.994;22.878;2022-08-19T08:04:05;100584.25;;;37.46;32.41
6567;BME280;3317;43.994;22.878;2022-08-19T08:06:51;100596.06;;;37.70;31.98
6567;BME280;3317;43.994;22.878;2022-08-19T08:09:38;100585.94;;;37.90;32.04
6567;BME280;3317;43.994;22.878;2022-08-19T08:12:09;100587.38;;;38.05;31.24
6567;BME280;3317;43.994;22.878;2022-08-19T08:14:39;100589.78;;;38.15;31.42
6567;BME280;3317;43.994;22.878;2022-08-19T08:17:08;100583.75;;;38.17;30.64
6567;BME280;3317;43.994;22.878;2022-08-19T08:19:37;100585.72;;;38.04;30.76
6567;BME280;3317;43.994;22.878;2022-08-19T08:22:08;100569.75;;;37.78;30.63
6567;BME280;3317;43.994;22.878;2022-08-19T08:24:55;100577.41;;;37.78;30.92
6567;BME280;3317;43.994;22.878;2022-08-19T08:27:23;100556.94;;;37.51;30.71
6567;BME280;3317;43.994;22.878;2022-08-19T08:29:51;100576.44;;;37.73;31.59
6567;BME280;3317;43.994;22.878;2022-08-19T08:32:18;100576.66;;;37.89;31.14
6567;BME280;3317;43.994;22.878;2022-08-19T08:34:45;100579.28;;;38.16;30.98
6567;BME280;3317;43.994;22.878;2022-08-19T08:37:13;100569.56;;;38.38;30.46
6567;BME280;3317;43.994;22.878;2022-08-19T08:39:40;100561.88;;;38.60;30.38
6567;BME280;3317;43.994;22.878;2022-08-19T08:42:11;100564.41;;;38.86;30.29
6567;BME280;3317;43.994;22.878;2022-08-19T08:44:49;100562.31;;;39.08;29.86
6567;BME280;3317;43.994;22.878;2022-08-19T08:47:20;100547.81;;;39.22;29.31
6567;BME280;3317;43.994;22.878;2022-08-19T08:49:51;100554.06;;;39.53;29.16
6567;BME280;3317;43.994;22.878;2022-08-19T08:52:24;100556.88;;;39.65;28.39
6567;BME280;3317;43.994;22.878;2022-08-19T08:54:54;100559.66;;;39.90;28.72
6567;BME280;3317;43.994;22.878;2022-08-19T08:57:28;100556.88;;;40.06;28.08
6567;BME280;3317;43.994;22.878;2022-08-19T09:00:00;100556.75;;;40.15;27.56
6567;BME280;3317;43.994;22.878;2022-08-19T09:02:30;100561.41;;;40.23;27.39
6567;BME280;3317;43.994;22.878;2022-08-19T09:04:57;100553.16;;;40.18;26.93
6567;BME280;3317;43.994;22.878;2022-08-19T09:07:36;100551.25;;;40.22;27.68
6567;BME280;3317;43.994;22.878;2022-08-19T09:10:13;100550.63;;;40.29;27.01
6567;BME280;3317;43.994;22.878;2022-08-19T09:12:48;100531.56;;;40.42;26.60
6567;BME280;3317;43.994;22.878;2022-08-19T09:15:32;100531.22;;;40.92;26.80
6567;BME280;3317;43.994;22.878;2022-08-19T09:18:04;100533.94;;;41.36;25.91
6567;BME280;3317;43.994;22.878;2022-08-19T09:20:32;100542.00;;;41.70;25.96
6567;BME280;3317;43.994;22.878;2022-08-19T09:23:00;100540.44;;;41.73;24.88
6567;BME280;3317;43.994;22.878;2022-08-19T09:25:27;100532.81;;;41.77;25.74
6567;BME280;3317;43.994;22.878;2022-08-19T09:27:56;100532.72;;;41.73;25.04
6567;BME280;3317;43.994;22.878;2022-08-19T09:30:30;100525.38;;;41.72;25.19
6567;BME280;3317;43.994;22.878;2022-08-19T09:32:58;100529.19;;;41.60;25.06
6567;BME280;3317;43.994;22.878;2022-08-19T09:35:28;100526.91;;;41.50;24.55
6567;BME280;3317;43.994;22.878;2022-08-19T09:37:56;100489.56;;;41.16;24.59
6567;BME280;3317;43.994;22.878;2022-08-19T09:40:26;100527.00;;;41.53;25.46
6567;BME280;3317;43.994;22.878;2022-08-19T09:42:54;100513.59;;;41.34;25.07
6567;BME280;3317;43.994;22.878;2022-08-19T09:45:22;100511.63;;;41.19;25.73
6567;BME280;3317;43.994;22.878;2022-08-19T09:47:50;100507.47;;;41.16;25.58
6567;BME280;3317;43.994;22.878;2022-08-19T09:50:18;100509.75;;;41.27;26.00
6567;BME280;3317;43.994;22.878;2022-08-19T09:52:45;100505.22;;;41.42;25.58
6567;BME280;3317;43.994;22.878;2022-08-19T09:55:13;100514.88;;;41.57;25.33
6567;BME280;3317;43.994;22.878;2022-08-19T09:57:42;100509.91;;;41.34;25.01
6567;BME280;3317;43.994;22.878;2022-08-19T10:00:10;100466.63;;;40.73;25.32
6567;BME280;3317;43.994;22.878;2022-08-19T10:02:38;100510.97;;;40.93;25.78
6567;BME280;3317;43.994;22.878;2022-08-19T10:05:05;100499.50;;;41.06;25.40
6567;BME280;3317;43.994;22.878;2022-08-19T10:07:49;100497.09;;;41.24;25.57
6567;BME280;3317;43.994;22.878;2022-08-19T10:10:17;100495.34;;;41.55;26.03
6567;BME280;3317;43.994;22.878;2022-08-19T10:12:45;100502.03;;;41.83;25.09
6567;BME280;3317;43.994;22.878;2022-08-19T10:15:14;100475.31;;;41.87;24.74
6567;BME280;3317;43.994;22.878;2022-08-19T10:17:42;100492.63;;;41.78;24.22
6567;BME280;3317;43.994;22.878;2022-08-19T10:20:09;100493.59;;;41.86;24.98
6567;BME280;3317;43.994;22.878;2022-08-19T10:22:37;100489.97;;;41.70;23.79
6567;BME280;3317;43.994;22.878;2022-08-19T10:25:06;100487.34;;;41.61;24.01
6567;BME280;3317;43.994;22.878;2022-08-19T10:27:33;100481.00;;;41.67;24.08
6567;BME280;3317;43.994;22.878;2022-08-19T10:30:04;100476.81;;;41.81;24.19
6567;BME280;3317;43.994;22.878;2022-08-19T10:32:31;100463.44;;;41.82;24.25
6567;BME280;3317;43.994;22.878;2022-08-19T10:34:59;100476.09;;;41.84;25.12
6567;BME280;3317;43.994;22.878;2022-08-19T10:37:26;100473.13;;;42.00;24.85
6567;BME280;3317;43.994;22.878;2022-08-19T10:39:53;100472.94;;;42.09;23.57
6567;BME280;3317;43.994;22.878;2022-08-19T10:42:20;100466.34;;;42.05;23.26
6567;BME280;3317;43.994;22.878;2022-08-19T10:44:47;100408.72;;;41.69;24.02
6567;BME280;3317;43.994;22.878;2022-08-19T10:47:16;100471.22;;;42.28;23.91
6567;BME280;3317;43.994;22.878;2022-08-19T10:49:44;100461.28;;;42.41;23.09
6567;BME280;3317;43.994;22.878;2022-08-19T10:52:29;100458.38;;;42.14;23.37
6567;BME280;3317;43.994;22.878;2022-08-19T10:55:04;100457.25;;;42.42;23.80
6567;BME280;3317;43.994;22.878;2022-08-19T10:57:49;100457.25;;;42.42;23.07
6567;BME280;3317;43.994;22.878;2022-08-19T11:00:18;100444.47;;;42.09;23.40
6567;BME280;3317;43.994;22.878;2022-08-19T11:02:47;100457.50;;;41.90;23.83
6567;BME280;3317;43.994;22.878;2022-08-19T11:05:15;100423.63;;;41.62;23.22
6567;BME280;3317;43.994;22.878;2022-08-19T11:07:43;100441.34;;;41.75;23.52
6567;BME280;3317;43.994;22.878;2022-08-19T11:10:12;100431.47;;;41.69;24.03
6567;BME280;3317;43.994;22.878;2022-08-19T11:12:40;100435.66;;;41.75;24.25
6567;BME280;3317;43.994;22.878;2022-08-19T11:15:09;100429.97;;;41.75;23.99
6567;BME280;3317;43.994;22.878;2022-08-19T11:17:37;100427.56;;;41.77;23.69
6567;BME280;3317;43.994;22.878;2022-08-19T11:20:08;100424.34;;;41.59;23.05
6567;BME280;3317;43.994;22.878;2022-08-19T11:22:38;100419.09;;;41.61;23.70
6567;BME280;3317;43.994;22.878;2022-08-19T11:25:06;100426.97;;;41.87;23.93
6567;BME280;3317;43.994;22.878;2022-08-19T11:27:33;100409.13;;;42.10;24.04
6567;BME280;3317;43.994;22.878;2022-08-19T11:30:00;100415.56;;;42.30;23.27
6567;BME280;3317;43.994;22.878;2022-08-19T11:32:29;100413.59;;;42.58;22.67
6567;BME280;3317;43.994;22.878;2022-08-19T11:34:56;100413.59;;;42.58;21.55
6567;BME280;3317;43.994;22.878;2022-08-19T11:37:24;100408.78;;;42.62;21.81
6567;BME280;3317;43.994;22.878;2022-08-19T11:39:52;100394.44;;;42.82;22.18
6567;BME280;3317;43.994;22.878;2022-08-19T11:42:19;100401.31;;;43.08;21.69
6567;BME280;3317;43.994;22.878;2022-08-19T11:45:03;100402.19;;;43.12;20.69
6567;BME280;3317;43.994;22.878;2022-08-19T11:47:31;100394.00;;;43.06;20.70
6567;BME280;3317;43.994;22.878;2022-08-19T11:49:58;100394.00;;;43.06;21.04
6567;BME280;3317;43.994;22.878;2022-08-19T11:52:27;100379.31;;;43.04;21.26
6567;BME280;3317;43.994;22.878;2022-08-19T11:54:55;100396.59;;;43.19;20.11
6567;BME280;3317;43.994;22.878;2022-08-19T11:57:22;100396.34;;;43.31;20.64
6567;BME280;3317;43.994;22.878;2022-08-19T11:59:50;100386.16;;;43.30;19.51
6567;BME280;3317;43.994;22.878;2022-08-19T12:02:17;100387.09;;;43.38;19.83
6567;BME280;3317;43.994;22.878;2022-08-19T12:04:45;100375.38;;;43.47;20.09
6567;BME280;3317;43.994;22.878;2022-08-19T12:07:12;100365.19;;;43.46;19.72
6567;BME280;3317;43.994;22.878;2022-08-19T12:09:41;100376.38;;;43.31;18.75
6567;BME280;3317;43.994;22.878;2022-08-19T12:12:09;100365.13;;;43.08;18.76
6567;BME280;3317;43.994;22.878;2022-08-19T12:14:36;100370.03;;;43.11;19.48
6567;BME280;3317;43.994;22.878;2022-08-19T12:17:03;100358.31;;;43.20;20.07
6567;BME280;3317;43.994;22.878;2022-08-19T12:19:33;100356.81;;;43.30;20.14
6567;BME280;3317;43.994;22.878;2022-08-19T12:22:01;100361.06;;;43.43;19.61
6567;BME280;3317;43.994;22.878;2022-08-19T12:24:30;100356.28;;;43.51;19.33
6567;BME280;3317;43.994;22.878;2022-08-19T12:26:59;100353.06;;;43.56;19.52
6567;BME280;3317;43.994;22.878;2022-08-19T12:29:27;100352.56;;;43.47;19.42
6567;BME280;3317;43.994;22.878;2022-08-19T12:31:55;100352.31;;;43.25;19.07
6567;BME280;3317;43.994;22.878;2022-08-19T12:34:28;100342.81;;;43.14;19.08
6567;BME280;3317;43.994;22.878;2022-08-19T12:36:57;100346.84;;;43.13;19.04
6567;BME280;3317;43.994;22.878;2022-08-19T12:39:24;100346.22;;;42.96;18.56
6567;BME280;3317;43.994;22.878;2022-08-19T12:41:53;100345.22;;;42.85;18.68
6567;BME280;3317;43.994;22.878;2022-08-19T12:44:22;100340.53;;;42.69;19.35
6567;BME280;3317;43.994;22.878;2022-08-19T12:46:49;100317.13;;;42.53;19.32
6567;BME280;3317;43.994;22.878;2022-08-19T12:49:16;100335.25;;;42.68;19.95
6567;BME280;3317;43.994;22.878;2022-08-19T12:51:43;100308.22;;;42.58;19.14
6567;BME280;3317;43.994;22.878;2022-08-19T12:54:10;100323.84;;;42.68;19.01
6567;BME280;3317;43.994;22.878;2022-08-19T12:56:37;100327.63;;;42.75;19.08
6567;BME280;3317;43.994;22.878;2022-08-19T12:59:05;100326.72;;;42.71;19.77
6567;BME280;3317;43.994;22.878;2022-08-19T13:01:35;100326.66;;;42.64;19.61
6567;BME280;3317;43.994;22.878;2022-08-19T13:04:03;100315.75;;;42.43;19.12
6567;BME280;3317;43.994;22.878;2022-08-19T13:06:30;100319.44;;;42.20;19.61
6567;BME280;3317;43.994;22.878;2022-08-19T13:08:58;100314.19;;;41.99;20.17
6567;BME280;3317;43.994;22.878;2022-08-19T13:11:25;100311.47;;;41.83;20.38